createdAt,value
2023-04-24T00:02:28.042Z,27.95
2023-04-24T00:04:56.947Z,21.13
2023-04-24T00:07:25.594Z,21.00
2023-04-24T00:09:55.812Z,22.65
2023-04-24T00:12:24.118Z,19.30
2023-04-24T00:14:53.012Z,19.80
2023-04-24T00:17:22.390Z,18.38
2023-04-24T00:19:52.595Z,16.55
2023-04-24T00:22:22.376Z,15.77
2023-04-24T00:24:50.932Z,15.80
2023-04-24T00:27:20.656Z,16.27
2023-04-24T00:29:49.251Z,14.48
2023-04-24T00:32:19.334Z,19.10
2023-04-24T00:34:47.871Z,16.58
2023-04-24T00:37:16.252Z,17.90
2023-04-24T00:39:45.168Z,19.20
2023-04-24T00:42:14.467Z,19.77
2023-04-24T00:44:44.248Z,16.35
2023-04-24T00:47:14.589Z,19.65
2023-04-24T00:49:43.354Z,15.98
2023-04-24T00:52:13.982Z,18.40
2023-04-24T00:54:43.369Z,17.05
2023-04-24T00:57:11.951Z,16.80
2023-04-24T00:59:42.330Z,17.55
2023-04-24T01:02:16.120Z,17.10
2023-04-24T01:04:45.566Z,13.57
2023-04-24T01:07:14.110Z,19.98
2023-04-24T01:09:43.988Z,19.25
2023-04-24T01:12:13.862Z,21.70
2023-04-24T01:14:46.556Z,17.70
2023-04-24T01:17:16.382Z,17.02
2023-04-24T01:19:46.265Z,15.27
2023-04-24T01:22:18.245Z,15.05
2023-04-24T01:24:48.163Z,17.95
2023-04-24T01:27:16.981Z,14.80
2023-04-24T01:29:45.659Z,13.32
2023-04-24T01:32:15.041Z,16.00
2023-04-24T01:34:43.677Z,17.85
2023-04-24T01:37:12.555Z,16.23
2023-04-24T01:39:43.043Z,16.52
2023-04-24T01:42:11.950Z,15.50
2023-04-24T01:44:41.092Z,18.08
2023-04-24T01:47:10.576Z,23.17
2023-04-24T01:49:41.624Z,16.67
2023-04-24T02:02:44.266Z,16.15
2023-04-24T02:05:14.114Z,18.80
2023-04-24T02:07:42.803Z,17.45
2023-04-24T02:10:12.424Z,17.40
2023-04-24T02:12:41.095Z,15.65
2023-04-24T02:15:13.309Z,20.67
2023-04-24T02:17:43.297Z,17.42
2023-04-24T02:20:12.243Z,19.17
2023-04-24T02:22:40.716Z,19.92
2023-04-24T02:25:09.765Z,21.23
2023-04-24T02:27:38.222Z,15.18
2023-04-24T02:30:08.910Z,16.75
2023-04-24T02:32:37.398Z,16.38
2023-04-24T02:35:09.549Z,18.45
2023-04-24T02:37:38.094Z,17.42
2023-04-24T02:40:08.374Z,17.20
2023-04-24T02:42:37.198Z,14.85
2023-04-24T02:45:06.506Z,14.85
2023-04-24T02:47:35.537Z,15.55
2023-04-24T02:50:07.610Z,17.10
2023-04-24T02:52:36.026Z,16.08
2023-04-24T02:55:04.768Z,14.75
2023-04-24T02:57:33.083Z,16.13
2023-04-24T03:00:01.629Z,11.98
2023-04-24T03:02:30.664Z,15.18
2023-04-24T03:04:59.632Z,19.10
2023-04-24T03:07:29.829Z,18.00
2023-04-24T03:09:59.794Z,18.48
2023-04-24T03:12:28.358Z,16.83
2023-04-24T03:14:58.643Z,15.82
2023-04-24T03:17:27.164Z,16.27
2023-04-24T03:19:56.189Z,17.75
2023-04-24T03:22:24.593Z,16.38
2023-04-24T03:24:55.987Z,16.23
2023-04-24T03:27:24.936Z,19.10
2023-04-24T03:29:56.429Z,22.00
2023-04-24T03:32:25.407Z,16.10
2023-04-24T03:34:54.520Z,18.95
2023-04-24T03:37:23.144Z,17.27
2023-04-24T03:39:51.574Z,16.00
2023-04-24T03:42:21.562Z,17.23
2023-04-24T03:44:50.597Z,16.33
2023-04-24T03:47:18.935Z,17.27
2023-04-24T03:49:48.678Z,17.08
2023-04-24T03:52:17.050Z,18.17
2023-04-24T03:54:45.695Z,20.42
2023-04-24T03:57:14.593Z,19.20
2023-04-24T03:59:45.225Z,15.98
2023-04-24T04:02:14.082Z,20.70
2023-04-24T04:04:43.620Z,20.77
2023-04-24T04:07:12.661Z,17.95
2023-04-24T04:09:41.875Z,19.92
2023-04-24T04:12:10.534Z,22.05
2023-04-24T04:14:39.555Z,19.55
2023-04-24T04:17:11.107Z,28.05
2023-04-24T04:19:39.419Z,18.58
2023-04-24T04:22:09.229Z,17.13
2023-04-24T04:24:39.427Z,20.42
2023-04-24T04:27:09.582Z,17.80
2023-04-24T04:29:38.488Z,18.23
2023-04-24T04:32:08.814Z,15.35
2023-04-24T04:34:38.921Z,15.65
2023-04-24T04:37:07.665Z,13.43
2023-04-24T04:39:36.531Z,9.02
2023-04-24T04:42:05.391Z,13.98
2023-04-24T04:44:37.257Z,14.68
2023-04-24T04:47:06.799Z,5.32
2023-04-24T04:49:38.117Z,6.43
2023-04-24T04:52:08.051Z,11.43
2023-04-24T04:54:36.698Z,15.93
2023-04-24T04:57:05.687Z,13.82
2023-04-24T04:59:35.336Z,19.33
2023-04-24T05:02:03.924Z,30.67
2023-04-24T05:04:33.191Z,21.40
2023-04-24T05:07:04.710Z,19.38
2023-04-24T05:09:35.535Z,17.92
2023-04-24T05:12:05.263Z,22.30
2023-04-24T05:14:35.598Z,21.55
2023-04-24T05:17:04.803Z,21.77
2023-04-24T05:19:37.427Z,24.33
2023-04-24T05:22:07.994Z,32.10
2023-04-24T05:24:37.233Z,18.23
2023-04-24T05:27:06.842Z,31.60
2023-04-24T05:29:35.822Z,25.90
2023-04-24T05:32:04.658Z,21.13
2023-04-24T05:34:34.692Z,24.30
2023-04-24T05:37:04.909Z,24.17
2023-04-24T05:39:37.477Z,18.95
2023-04-24T05:42:06.504Z,24.05
2023-04-24T05:44:35.828Z,23.95
2023-04-24T05:47:04.348Z,22.73
2023-04-24T05:49:35.619Z,18.27
2023-04-24T05:52:07.728Z,19.70
2023-04-24T05:54:37.713Z,16.77
2023-04-24T05:57:08.825Z,16.10
2023-04-24T05:59:39.305Z,16.42
2023-04-24T06:02:08.394Z,15.02
2023-04-24T06:04:38.590Z,18.10
2023-04-24T06:07:07.967Z,18.30
2023-04-24T06:09:38.260Z,15.07
2023-04-24T06:12:08.724Z,23.17
2023-04-24T06:14:37.285Z,20.67
2023-04-24T06:17:05.738Z,14.93
2023-04-24T06:19:34.226Z,17.55
2023-04-24T06:22:02.813Z,17.67
2023-04-24T06:24:32.365Z,16.98
2023-04-24T06:27:02.603Z,13.30
2023-04-24T06:29:30.969Z,11.05
2023-04-24T06:31:59.555Z,11.48
2023-04-24T06:34:28.166Z,12.55
2023-04-24T06:36:57.618Z,15.55
2023-04-24T06:39:27.488Z,17.90
2023-04-24T06:41:56.308Z,14.65
2023-04-24T06:44:26.583Z,12.30
2023-04-24T06:46:59.182Z,8.98
2023-04-24T06:49:28.043Z,11.05
2023-04-24T06:51:56.698Z,10.88
2023-04-24T06:54:25.472Z,10.07
2023-04-24T06:56:55.749Z,10.85
2023-04-24T06:59:26.116Z,8.82
2023-04-24T07:01:55.678Z,9.02
2023-04-24T07:04:26.756Z,8.00
2023-04-24T07:06:57.147Z,7.60
2023-04-24T07:09:26.550Z,6.00
2023-04-24T07:11:58.922Z,7.55
2023-04-24T07:14:31.727Z,9.00
2023-04-24T07:17:00.166Z,10.80
2023-04-24T07:19:29.065Z,14.40
2023-04-24T07:22:00.425Z,9.35
2023-04-24T07:24:30.908Z,10.77
2023-04-24T07:26:59.730Z,8.30
2023-04-24T07:29:29.889Z,11.77
2023-04-24T07:32:00.492Z,12.20
2023-04-24T07:34:29.936Z,13.85
2023-04-24T07:36:58.729Z,13.85
2023-04-24T07:39:27.562Z,12.20
2023-04-24T07:41:55.952Z,11.35
2023-04-24T07:44:24.561Z,3.70
2023-04-24T07:46:55.159Z,11.32
2023-04-24T07:49:25.276Z,7.13
2023-04-24T07:51:53.524Z,10.57
2023-04-24T07:54:22.184Z,12.90
2023-04-24T07:56:52.282Z,10.02
2023-04-24T07:59:21.152Z,6.90
2023-04-24T08:01:49.646Z,18.25
2023-04-24T08:04:21.158Z,9.60
2023-04-24T08:06:50.694Z,11.73
2023-04-24T08:09:19.457Z,14.48
2023-04-24T08:11:47.784Z,12.07
2023-04-24T08:14:16.371Z,15.10
2023-04-24T08:16:44.753Z,11.13
2023-04-24T08:19:13.441Z,15.55
2023-04-24T08:21:43.588Z,12.27
2023-04-24T08:24:12.228Z,16.88
2023-04-24T08:26:41.241Z,11.85
2023-04-24T08:29:09.654Z,16.33
2023-04-24T08:31:38.495Z,13.10
2023-04-24T08:34:07.172Z,11.23
2023-04-24T08:36:45.952Z,9.63
2023-04-24T08:39:18.784Z,12.98
2023-04-24T08:41:48.043Z,10.50
2023-04-24T08:44:17.750Z,13.32
2023-04-24T08:46:48.903Z,14.13
2023-04-24T08:49:19.232Z,16.15
2023-04-24T08:51:48.982Z,13.68
2023-04-24T08:54:23.037Z,18.83
2023-04-24T08:56:54.740Z,12.32
2023-04-24T08:59:31.741Z,14.75
2023-04-24T09:02:02.723Z,10.98
2023-04-24T09:04:44.446Z,14.45
2023-04-24T09:07:18.623Z,10.15
2023-04-24T09:09:57.379Z,7.25
2023-04-24T09:12:53.988Z,9.35
2023-04-24T09:15:42.503Z,10.23
2023-04-24T09:18:54.416Z,8.35
2023-04-24T09:28:37.131Z,9.43
2023-04-24T09:31:15.305Z,10.60
2023-04-24T09:37:56.319Z,7.70
2023-04-24T09:44:53.628Z,8.93
2023-04-24T09:48:00.841Z,7.88
2023-04-24T09:58:16.587Z,7.32
2023-04-24T10:08:31.194Z,11.40
2023-04-24T10:22:00.139Z,11.75
2023-04-24T11:13:57.069Z,10.45
2023-04-24T11:24:56.334Z,15.50
2023-04-24T11:27:47.331Z,10.82
2023-04-24T11:30:45.682Z,14.32
2023-04-24T11:33:22.898Z,17.30
2023-04-24T11:35:56.974Z,9.90
2023-04-24T11:38:39.858Z,10.23
2023-04-24T11:41:09.298Z,11.02
2023-04-24T11:43:50.229Z,8.63
2023-04-24T11:46:23.942Z,7.93
2023-04-24T11:48:59.960Z,8.80
2023-04-24T11:55:29.665Z,10.80
2023-04-24T12:44:35.924Z,12.18
2023-04-24T13:03:57.527Z,11.30
2023-04-24T13:10:37.108Z,13.50
2023-04-24T13:52:18.031Z,11.38
2023-04-24T13:54:52.694Z,8.40
2023-04-24T13:58:14.383Z,9.93
2023-04-24T14:01:14.371Z,9.18
2023-04-24T14:03:52.087Z,10.57
2023-04-24T14:06:24.865Z,9.80
2023-04-24T14:25:04.288Z,8.63
2023-04-24T14:32:05.371Z,10.45
2023-04-24T14:38:36.524Z,8.65
2023-04-24T14:41:15.901Z,7.63
2023-04-24T14:44:01.654Z,9.82
2023-04-24T14:58:38.397Z,8.65
2023-04-24T15:06:38.054Z,7.97
2023-04-24T15:09:54.560Z,9.90
2023-04-24T15:13:30.573Z,6.45
2023-04-24T15:24:15.727Z,14.88
2023-04-24T15:27:33.626Z,11.32
2023-04-24T15:31:20.265Z,13.18
2023-04-24T15:35:10.143Z,5.75
2023-04-24T15:38:33.291Z,7.63
2023-04-24T15:41:01.900Z,9.85
2023-04-24T15:43:32.578Z,9.10
2023-04-24T15:46:01.378Z,10.88
2023-04-24T15:48:30.379Z,8.23
2023-04-24T15:51:00.113Z,7.50
2023-04-24T15:53:30.131Z,8.40
2023-04-24T15:55:58.617Z,6.65
2023-04-24T15:58:27.078Z,5.95
2023-04-24T16:00:55.998Z,6.68
2023-04-24T16:03:24.622Z,11.77
2023-04-24T16:05:54.381Z,7.45
2023-04-24T16:08:23.016Z,6.57
2023-04-24T16:10:53.770Z,6.60
2023-04-24T16:13:22.503Z,10.02
2023-04-24T16:15:52.568Z,10.20
2023-04-24T16:18:21.223Z,11.73
2023-04-24T16:20:52.037Z,5.72
2023-04-24T16:23:20.864Z,8.32
2023-04-24T16:25:49.459Z,6.30
2023-04-24T16:28:19.967Z,6.70
2023-04-24T16:30:48.676Z,6.68
2023-04-24T16:33:17.829Z,4.57
2023-04-24T16:35:49.430Z,8.57
2023-04-24T16:38:18.097Z,7.35
2023-04-24T16:40:46.930Z,5.53
2023-04-24T16:43:15.360Z,5.53
2023-04-24T16:45:46.218Z,6.70
2023-04-24T16:48:18.185Z,7.53
2023-04-24T16:50:51.525Z,6.18
2023-04-24T16:53:20.651Z,6.50
2023-04-24T16:55:51.087Z,6.00
2023-04-24T16:58:20.246Z,9.10
2023-04-24T17:00:50.777Z,6.43
2023-04-24T17:03:19.536Z,8.80
2023-04-24T17:05:48.431Z,9.65
2023-04-24T17:08:16.997Z,8.18
2023-04-24T17:10:45.404Z,7.18
2023-04-24T17:13:14.690Z,8.57
2023-04-24T17:15:43.762Z,7.13
2023-04-24T17:18:13.823Z,7.20
2023-04-24T17:20:42.110Z,6.22
2023-04-24T17:23:12.249Z,7.25
2023-04-24T17:25:41.176Z,5.97
2023-04-24T17:28:22.566Z,8.07
2023-04-24T17:30:51.143Z,7.60
2023-04-24T17:33:21.358Z,4.53
2023-04-24T17:35:50.757Z,5.85
2023-04-24T17:38:19.954Z,4.55
2023-04-24T17:40:48.500Z,9.27
2023-04-24T17:43:18.561Z,7.03
2023-04-24T17:45:47.696Z,7.38
2023-04-24T17:48:16.522Z,7.47
2023-04-24T17:50:47.419Z,8.82
2023-04-24T17:53:16.435Z,8.27
2023-04-24T17:55:45.001Z,7.45
2023-04-24T17:58:14.135Z,7.25
2023-04-24T18:00:43.505Z,4.00
2023-04-24T18:03:12.137Z,11.13
2023-04-24T18:05:41.592Z,6.60
2023-04-24T18:08:11.559Z,8.85
2023-04-24T18:10:40.069Z,6.93
2023-04-24T18:13:09.828Z,6.40
2023-04-24T18:15:42.294Z,5.57
2023-04-24T18:18:11.285Z,7.72
2023-04-24T18:20:39.660Z,6.15
2023-04-24T18:23:08.163Z,4.72
2023-04-24T18:25:38.179Z,5.43
2023-04-24T18:28:06.851Z,7.13
2023-04-24T18:30:35.172Z,6.47
2023-04-24T18:33:03.875Z,6.22
2023-04-24T18:35:32.371Z,7.03
2023-04-24T18:38:02.071Z,6.32
2023-04-24T18:40:30.991Z,6.97
2023-04-24T18:43:01.334Z,9.10
2023-04-24T18:45:30.134Z,7.57
2023-04-24T18:47:58.640Z,7.22
2023-04-24T18:50:31.970Z,7.63
2023-04-24T18:53:00.653Z,6.68
2023-04-24T18:55:29.324Z,6.80
2023-04-24T18:57:57.838Z,9.43
2023-04-24T19:00:28.075Z,5.45
2023-04-24T19:02:56.668Z,8.48
2023-04-24T19:05:27.071Z,7.82
2023-04-24T19:07:55.786Z,6.63
2023-04-24T19:10:24.345Z,9.45
2023-04-24T19:12:57.289Z,6.18
2023-04-24T19:15:25.726Z,6.65
2023-04-24T19:17:55.967Z,9.90
2023-04-24T19:20:30.705Z,9.10
2023-04-24T19:23:00.298Z,10.45
2023-04-24T19:25:28.925Z,7.53
2023-04-24T19:27:58.527Z,9.23
2023-04-24T19:30:27.171Z,8.23
2023-04-24T19:32:58.726Z,9.15
2023-04-24T19:35:27.559Z,11.80
2023-04-24T19:37:57.009Z,11.57
2023-04-24T19:40:25.812Z,11.00
2023-04-24T19:42:55.856Z,12.32
2023-04-24T19:45:24.378Z,9.85
2023-04-24T19:47:53.454Z,12.35
2023-04-24T19:50:23.617Z,18.27
2023-04-24T19:52:52.051Z,19.35
2023-04-24T19:55:20.482Z,18.40
2023-04-24T19:57:48.776Z,9.30
2023-04-24T20:00:17.453Z,8.85
2023-04-24T20:02:46.349Z,9.75
2023-04-24T20:05:14.996Z,16.73
2023-04-24T20:07:46.625Z,23.10
2023-04-24T20:10:15.610Z,19.45
2023-04-24T20:12:44.197Z,14.23
2023-04-24T20:15:13.954Z,11.75
2023-04-24T20:17:44.554Z,14.55
2023-04-24T20:20:15.871Z,15.70
2023-04-24T20:22:51.194Z,14.00
2023-04-24T20:25:21.030Z,18.27
2023-04-24T20:27:49.631Z,36.00
2023-04-24T20:30:18.330Z,74.68
2023-04-24T20:32:46.927Z,52.08
2023-04-24T20:35:15.568Z,42.58
2023-04-24T20:37:48.286Z,22.85
2023-04-24T20:40:17.498Z,17.73
2023-04-24T20:42:46.430Z,13.05
2023-04-24T20:45:14.907Z,9.68
2023-04-24T20:47:43.579Z,11.07
2023-04-24T20:50:13.018Z,14.75
2023-04-24T20:52:41.557Z,18.30
2023-04-24T20:55:11.922Z,19.33
2023-04-24T20:57:40.721Z,14.70
2023-04-24T21:00:11.299Z,13.25
2023-04-24T21:02:39.777Z,16.38
2023-04-24T21:05:10.338Z,11.90
2023-04-24T21:07:39.085Z,16.48
2023-04-24T21:10:09.803Z,17.48
2023-04-24T21:12:40.721Z,32.22
2023-04-24T21:15:09.924Z,32.97
2023-04-24T21:17:39.725Z,27.52
2023-04-24T21:20:09.958Z,35.80
2023-04-24T21:22:44.848Z,37.13
2023-04-24T21:25:14.529Z,29.23
2023-04-24T21:27:44.688Z,34.42
2023-04-24T21:30:22.127Z,38.53
2023-04-24T21:32:52.679Z,42.33
2023-04-24T21:35:22.506Z,37.60
2023-04-24T21:37:55.987Z,35.88
2023-04-24T21:40:24.452Z,25.92
2023-04-24T21:42:58.077Z,41.38
2023-04-24T21:45:27.632Z,137.50
2023-04-24T21:47:58.658Z,82.43
2023-04-24T21:50:27.310Z,83.63
2023-04-24T21:52:55.943Z,114.82
2023-04-24T21:55:24.392Z,31.08
2023-04-24T21:57:56.723Z,19.92
2023-04-24T22:00:27.336Z,17.83
2023-04-24T22:02:58.181Z,19.17
2023-04-24T22:05:31.707Z,16.27
2023-04-24T22:08:00.712Z,14.60
2023-04-24T22:10:31.327Z,14.70
2023-04-24T22:13:01.758Z,13.50
2023-04-24T22:15:36.497Z,11.98
2023-04-24T22:18:06.825Z,13.93
2023-04-24T22:20:39.233Z,13.10
2023-04-24T22:23:07.738Z,44.70
2023-04-24T22:25:37.299Z,34.72
2023-04-24T22:28:07.753Z,30.65
2023-04-24T22:30:36.248Z,27.08
2023-04-24T22:33:05.390Z,14.68
2023-04-24T22:35:36.212Z,13.85
2023-04-24T22:38:05.021Z,22.13
2023-04-24T22:40:35.815Z,10.90
2023-04-24T22:43:04.207Z,17.88
2023-04-24T22:45:36.393Z,11.95
2023-04-24T22:48:06.073Z,13.60
2023-04-24T22:50:37.262Z,14.77
2023-04-24T22:53:05.930Z,17.63
2023-04-24T22:55:38.603Z,12.45
2023-04-24T22:58:08.603Z,11.55
2023-04-24T23:00:39.570Z,17.73
2023-04-24T23:03:08.303Z,11.48
2023-04-24T23:05:37.128Z,9.68
2023-04-24T23:08:06.879Z,10.48
2023-04-24T23:10:35.276Z,12.90
2023-04-24T23:13:04.987Z,15.88
2023-04-24T23:15:35.245Z,10.55
2023-04-24T23:18:06.333Z,14.43
2023-04-24T23:20:37.756Z,13.68
2023-04-24T23:23:06.782Z,14.00
2023-04-24T23:25:35.334Z,15.43
2023-04-24T23:28:03.744Z,13.45
2023-04-24T23:30:33.402Z,14.25
2023-04-24T23:33:02.510Z,15.63
2023-04-24T23:35:33.968Z,12.45
2023-04-24T23:38:11.324Z,14.35
2023-04-24T23:40:41.874Z,14.02
2023-04-24T23:43:10.341Z,14.48
2023-04-24T23:45:46.829Z,12.90
2023-04-24T23:48:15.785Z,9.15
2023-04-24T23:50:50.889Z,6.07
2023-04-24T23:53:21.440Z,5.38
2023-04-24T23:55:52.120Z,6.80
2023-04-24T23:58:22.804Z,6.60
